Hlavní strana
METAR-TAF:

METAR-TAF

Letiště :

Linec, Rakousko

zeměpisná šířka: 48-14N, zeměpisná délka: 014-11E, výška: 298 m

Aktuální stav počasí

Zpráva byla vytvořena před 39 minutami, v 05:50 UTC
vítr z různých směrů 1 kt
Teplota 22°C
Vlhkost vzduchu 78%
Tlak 1013 hPa
Viditelnost 10 km a více

METAR: LOWL 190550Z AUTO VRB01KT 9999 NCD 22/18 Q1013 NOSIG

Čas: 08:29 (06:29 UTC)

Předpověď počasí

Zpráva byla vytvořena před 1 hodinou a 14 minutami, v 05:15 UTC
Předpověď platná od 19 v 06 UTC do 20 v 06 UTC
Západní vítr 3 kt
Viditelnost 10 km a více
Žádná oblačnost pod 1500 m, nevyskytují se cumulonimby.
Dočasný
od 19 v 19 UTC do 19 v 23 UTC
Severní vítr 10 kt
Změna
od 20 v 04 UTC do 20 v 06 UTC
Východní vítr 8 kt

TAF: LOWL 190515Z 1906/2006 27003KT CAVOK TX32/1914Z TN19/2003Z TEMPO 1919/1923 35010KT BECMG 2004/2006 08008KT

Stav a předpovědi počasí z více než 4 000 letišť (zprávy METAR a TAF).

Červené a žluté tečky na mapě představují dostupné meteorologické stanice.

Když kurzor umístíte na tečku, zobrazí se název stanice.

Pak kliknutím zobrazíte stav a předpověď počasí.

Chcete-li změnit mapu, kliknutím na zelené tlačítko se znaménkem +mapu přiblížíte, kliknutím na zelené tlačítko se znaménkem – mapu oddálíte a kliknutím na zelené šipky přejdete na sousední mapy.


METAR-TAF: